Lagrange, ME

11:59 AM EDT on October 30, 2014 (GMT -0400)
Near the Brownville Jct. Fire Station | Change Station
CLOSE
Current Station
Personal Weather Station
Location: Brownville, ME
Elevation: 385 ft
Nearby Weather Stations

Elev 385 ft 45.35 °N, 69.05 °W | Updated 10 minutes ago

Mostly Cloudy
Mostly Cloudy
51.1 °F
Feels Like 51.1 °F
N
3.2
Wind Variable Wind from NNW

Today
High -- | Low -- °F
--% Chance of Precip.
Yesterday
High -- | Low -- °F
Precip. -- in
7:11 AM 5:25 PM
Waxing Crescent, 45% visible
Pressure 29.88 in
Visibility 10.0 miles
Clouds Few 5000 ft
Mostly Cloudy 7500 ft
Mostly Cloudy 9000 ft
Dew Point 40 °F
Humidity 67%
Rainfall 0.00 in
Snow Depth Not available.
UV 2 out of 12
Pollen .30 out of 12
Air Quality Not available.
Flu Activity Not available.
METAR KBGR 301553Z 28006KT 10SM FEW050 BKN075 BKN090 11/06 A2987 RMK AO2 SLP116 T01060056

More Conditions Fewer Conditions

Pressure 29.88 in
Visibility 10.0 miles
Clouds Few 5000 ft
Mostly Cloudy 7500 ft
Mostly Cloudy 9000 ft
Dew Point 40 °F
Humidity 67%
Rainfall 0.00 in
Snow Depth Not available.
UV 2 out of 12
Pollen .30 out of 12
Air Quality Not available.
Flu Activity Not available.
METAR KBGR 301553Z 28006KT 10SM FEW050 BKN075 BKN090 11/06 A2987 RMK AO2 SLP116 T01060056

More Conditions Fewer Conditions

10-Day Weather Forecast

Almanac

Astronomy

Oct. 30, 2014 Rise Set
Actual Time
Civil Twilight
Nautical Twilight
Astronomical Twilight
Moon
Length of Visible Light
Length of Day
Tomorrow will be .
, % of the Moon is Illuminated

Today's Extremes

State Highs State Lows

Community

WunderPhotos

Upload Photos

1,766,389 photos uploaded!

WunderBlogs® & News

Nearby

Air Quality

  Air Quality AQ Index Pollutant
Not available.

Snow Depth

Station Depth Elevation

Earthquake Activity

City Distance Mag. Time & Date
Minimum magnitude displayed is 2.5.

Coastal Water Temperatures

Place Temperature

Nearby Weather Stations